createdAt,value
2019-06-07T00:01:38.965Z,14.42
2019-06-07T00:04:08.308Z,14.40
2019-06-07T00:06:32.582Z,14.35
2019-06-07T00:08:58.444Z,14.31
2019-06-07T00:11:24.318Z,14.29
2019-06-07T00:13:50.182Z,14.27
2019-06-07T00:16:20.822Z,14.15
2019-06-07T00:18:43.799Z,14.14
2019-06-07T00:21:10.009Z,14.19
2019-06-07T00:23:35.926Z,14.15
2019-06-07T00:26:01.781Z,14.11
2019-06-07T00:28:27.658Z,14.03
2019-06-07T00:30:53.522Z,14.13
2019-06-07T00:33:24.099Z,14.01
2019-06-07T00:35:47.143Z,13.90
2019-06-07T00:38:14.263Z,13.88
2019-06-07T00:40:40.351Z,13.84
2019-06-07T00:43:06.276Z,13.77
2019-06-07T00:45:32.079Z,13.75
2019-06-07T00:47:57.936Z,13.74
2019-06-07T00:50:24.359Z,13.80
2019-06-07T00:55:22.230Z,13.99
2019-06-07T00:57:46.195Z,13.76
2019-06-07T01:00:21.453Z,13.77
2019-06-07T01:02:44.623Z,13.88
2019-06-07T01:05:15.422Z,13.82
2019-06-07T01:07:39.291Z,13.79
2019-06-07T01:10:08.862Z,13.75
2019-06-07T01:12:34.722Z,13.66
2019-06-07T01:15:00.580Z,13.51
2019-06-07T01:17:41.145Z,13.45
2019-06-07T01:19:56.808Z,13.46
2019-06-07T01:22:26.929Z,13.46
2019-06-07T01:24:50.639Z,13.31
2019-06-07T01:27:18.406Z,13.26
2019-06-07T01:29:44.522Z,13.28
2019-06-07T01:32:10.421Z,13.26
2019-06-07T01:34:36.276Z,13.26
2019-06-07T01:37:02.135Z,13.18
2019-06-07T01:39:31.095Z,13.14
2019-06-07T01:41:55.750Z,13.09
2019-06-07T01:44:24.182Z,13.06
2019-06-07T01:46:49.370Z,12.99
2019-06-07T01:49:15.219Z,13.00
2019-06-07T01:51:41.131Z,13.01
2019-06-07T01:54:49.485Z,13.07
2019-06-07T01:56:34.758Z,13.11
2019-06-07T01:59:00.600Z,12.98
2019-06-07T02:01:29.709Z,12.93
2019-06-07T02:03:54.242Z,12.86
2019-06-07T02:06:20.983Z,12.90
2019-06-07T02:08:47.591Z,12.89
2019-06-07T02:11:13.443Z,12.89
2019-06-07T02:13:39.308Z,12.77
2019-06-07T02:16:05.781Z,12.72
2019-06-07T02:18:34.606Z,12.76
2019-06-07T02:20:59.355Z,12.79
2019-06-07T02:23:29.219Z,12.82
2019-06-07T02:25:52.969Z,12.70
2019-06-07T02:28:30.083Z,12.66
2019-06-07T02:30:58.893Z,12.68
2019-06-07T02:33:14.348Z,12.67
2019-06-07T02:35:41.227Z,12.72
2019-06-07T02:38:07.178Z,12.70
2019-06-07T02:40:37.319Z,12.68
2019-06-07T02:43:00.787Z,12.56
2019-06-07T02:45:29.925Z,12.61
2019-06-07T02:47:54.494Z,12.63
2019-06-07T02:50:20.355Z,12.65
2019-06-07T02:52:46.212Z,12.67
2019-06-07T02:55:12.497Z,12.63
2019-06-07T02:57:41.779Z,12.62
2019-06-07T03:00:40.627Z,12.64
2019-06-07T03:02:41.224Z,12.52
2019-06-07T03:05:06.136Z,12.51
2019-06-07T03:07:39.007Z,12.53
2019-06-07T03:10:04.976Z,12.55
2019-06-07T03:12:33.539Z,12.55
2019-06-07T03:14:59.559Z,12.50
2019-06-07T03:17:38.894Z,12.44
2019-06-07T03:20:07.046Z,12.40
2019-06-07T03:22:38.964Z,12.50
2019-06-07T03:25:03.070Z,12.45
2019-06-07T03:27:36.023Z,12.50
2019-06-07T03:29:56.904Z,12.51
2019-06-07T03:32:22.775Z,12.26
2019-06-07T03:34:48.627Z,12.19
2019-06-07T03:37:14.485Z,12.21
2019-06-07T03:39:41.206Z,12.35
2019-06-07T03:42:08.569Z,12.41
2019-06-07T03:44:36.404Z,12.45
2019-06-07T03:47:02.334Z,12.41
2019-06-07T03:49:30.657Z,12.39
2019-06-07T03:51:55.936Z,12.40
2019-06-07T03:54:21.799Z,12.26
2019-06-07T03:56:47.658Z,12.32
2019-06-07T03:59:13.510Z,12.36
2019-06-07T04:01:41.190Z,12.24
2019-06-07T04:04:07.126Z,12.19
2019-06-07T04:06:36.150Z,12.26
2019-06-07T04:09:00.774Z,12.34
2019-06-07T04:11:27.546Z,12.43
2019-06-07T04:13:53.672Z,12.43
2019-06-07T04:16:19.546Z,12.32
2019-06-07T04:18:45.399Z,12.41
2019-06-07T04:21:11.250Z,12.39
2019-06-07T04:23:44.719Z,12.31
2019-06-07T04:26:04.887Z,12.43
2019-06-07T04:29:27.416Z,12.27
2019-06-07T04:30:58.616Z,12.39
2019-06-07T04:33:24.770Z,12.47
2019-06-07T04:35:53.330Z,12.41
2019-06-07T04:38:20.279Z,12.42
2019-06-07T04:40:47.063Z,12.41
2019-06-07T04:43:13.200Z,12.44
2019-06-07T04:45:45.864Z,12.56
2019-06-07T04:48:07.518Z,12.53
2019-06-07T04:50:36.169Z,12.67
2019-06-07T04:53:02.537Z,12.78
2019-06-07T04:55:29.074Z,12.91
2019-06-07T04:57:55.552Z,12.97
2019-06-07T05:00:49.878Z,13.18
2019-06-07T05:03:04.151Z,13.33
2019-06-07T05:05:31.853Z,13.36
2019-06-07T05:08:07.208Z,13.58
2019-06-07T05:10:30.578Z,13.74
2019-06-07T05:12:56.232Z,13.63
2019-06-07T05:15:22.184Z,13.88
2019-06-07T05:17:48.634Z,14.06
2019-06-07T05:20:16.127Z,14.27
2019-06-07T05:22:45.107Z,14.22
2019-06-07T05:25:10.044Z,14.12
2019-06-07T05:27:38.658Z,14.26
2019-06-07T05:30:36.071Z,14.00
2019-06-07T05:32:34.972Z,14.41
2019-06-07T05:35:00.962Z,14.53
2019-06-07T05:37:26.807Z,14.62
2019-06-07T05:39:52.668Z,14.60
2019-06-07T05:42:18.737Z,14.84
2019-06-07T05:44:45.828Z,14.94
2019-06-07T05:47:11.817Z,15.23
2019-06-07T05:49:39.577Z,15.06
2019-06-07T05:52:05.453Z,15.14
2019-06-07T05:54:34.674Z,15.04
2019-06-07T05:56:59.103Z,15.53
2019-06-07T05:59:24.961Z,15.53
2019-06-07T06:02:01.977Z,15.47
2019-06-07T06:04:18.731Z,15.82
2019-06-07T06:06:47.047Z,15.89
2019-06-07T06:09:14.173Z,15.69
2019-06-07T06:11:55.270Z,16.04
2019-06-07T06:14:08.870Z,16.01
2019-06-07T06:16:34.828Z,15.98
2019-06-07T06:19:00.704Z,15.96
2019-06-07T06:21:26.561Z,16.31
2019-06-07T06:23:54.051Z,16.54
2019-06-07T06:26:20.097Z,16.33
2019-06-07T06:28:45.954Z,16.04
2019-06-07T06:31:11.829Z,16.42
2019-06-07T06:33:37.731Z,16.75
2019-06-07T06:36:03.589Z,16.49
2019-06-07T06:38:29.447Z,15.99
2019-06-07T06:41:14.283Z,16.24
2019-06-07T06:43:23.166Z,16.01
2019-06-07T06:45:50.621Z,16.26
2019-06-07T06:48:16.692Z,16.27
2019-06-07T06:50:44.411Z,16.36
2019-06-07T06:53:10.301Z,16.94
2019-06-07T06:55:36.181Z,16.25
2019-06-07T06:58:02.125Z,16.20
2019-06-07T07:00:53.479Z,16.30
2019-06-07T07:05:43.368Z,16.05
2019-06-07T07:08:09.758Z,16.04
2019-06-07T07:10:38.922Z,16.13
2019-06-07T07:13:04.898Z,16.30
2019-06-07T07:15:30.764Z,16.87
2019-06-07T07:18:07.985Z,16.47
2019-06-07T07:20:24.616Z,16.31
2019-06-07T07:22:56.263Z,16.16
2019-06-07T07:25:18.654Z,15.93
2019-06-07T07:27:44.835Z,15.75
2019-06-07T07:32:40.644Z,15.66
2019-06-07T07:35:06.715Z,15.96
2019-06-07T07:37:32.558Z,16.65
2019-06-07T07:40:09.656Z,17.05
2019-06-07T07:42:26.215Z,16.80
2019-06-07T07:44:55.123Z,17.30
2019-06-07T07:47:19.847Z,17.66
2019-06-07T07:49:48.372Z,17.55
2019-06-07T07:52:13.496Z,17.46
2019-06-07T07:54:39.371Z,16.68
2019-06-07T07:57:05.223Z,16.89
2019-06-07T07:59:41.829Z,16.85
2019-06-07T08:01:58.889Z,16.92
2019-06-07T08:05:12.174Z,16.95
2019-06-07T08:06:55.675Z,16.82
2019-06-07T08:09:20.300Z,16.47
2019-06-07T08:11:47.736Z,16.65
2019-06-07T08:14:13.935Z,17.05
2019-06-07T08:16:39.791Z,17.38
2019-06-07T08:19:05.779Z,17.93
2019-06-07T08:21:31.749Z,17.19
2019-06-07T08:24:01.454Z,17.72
2019-06-07T08:26:27.373Z,17.55
2019-06-07T08:28:56.954Z,17.80
2019-06-07T08:31:20.982Z,17.39
2019-06-07T08:33:47.772Z,17.21
2019-06-07T08:36:20.265Z,16.94
2019-06-07T08:38:47.982Z,17.59
2019-06-07T08:41:12.254Z,18.24
2019-06-07T08:43:37.644Z,18.35
2019-06-07T08:46:07.288Z,17.87
2019-06-07T08:48:31.497Z,17.54
2019-06-07T08:51:02.258Z,17.39
2019-06-07T08:53:25.151Z,17.58
2019-06-07T08:55:54.232Z,18.16
2019-06-07T08:58:18.842Z,18.66
2019-06-07T09:00:47.219Z,18.35
2019-06-07T09:03:12.490Z,18.49
2019-06-07T09:05:38.566Z,18.43
2019-06-07T09:08:28.252Z,18.40
2019-06-07T09:10:32.824Z,18.16
2019-06-07T09:13:03.165Z,18.74
2019-06-07T09:15:27.390Z,19.06
2019-06-07T09:18:34.981Z,18.75
2019-06-07T09:20:36.268Z,18.71
2019-06-07T09:22:49.964Z,19.00
2019-06-07T09:25:20.874Z,19.24
2019-06-07T09:27:43.894Z,19.34
2019-06-07T09:30:16.250Z,19.22
2019-06-07T09:32:38.530Z,19.58
2019-06-07T09:35:12.412Z,19.13
2019-06-07T09:38:10.919Z,19.41
2019-06-07T09:40:17.423Z,19.42
2019-06-07T09:42:29.335Z,19.48
2019-06-07T09:44:57.342Z,19.98
2019-06-07T09:47:32.350Z,19.98
2019-06-07T09:49:50.711Z,19.68
2019-06-07T09:52:16.594Z,19.97
2019-06-07T09:55:06.138Z,19.64
2019-06-07T09:57:16.615Z,19.68
2019-06-07T09:59:37.992Z,19.24
2019-06-07T10:02:06.346Z,19.40
2019-06-07T10:04:31.816Z,19.97
2019-06-07T10:07:04.039Z,20.02
2019-06-07T10:10:08.614Z,19.77
2019-06-07T10:11:53.459Z,20.11
2019-06-07T10:14:19.324Z,20.15
2019-06-07T10:16:46.777Z,20.24
2019-06-07T10:19:12.952Z,19.79
2019-06-07T10:21:38.815Z,20.37
2019-06-07T10:24:05.576Z,20.20
2019-06-07T10:26:31.661Z,20.15
2019-06-07T10:28:57.526Z,20.04
2019-06-07T10:31:23.384Z,20.29
2019-06-07T10:33:49.233Z,20.43
2019-06-07T10:36:15.098Z,20.19
2019-06-07T10:38:41.068Z,20.38
2019-06-07T10:41:06.922Z,20.39
2019-06-07T10:43:32.782Z,20.46
2019-06-07T10:45:58.757Z,20.06
2019-06-07T10:48:25.175Z,20.31
2019-06-07T10:50:51.176Z,20.42
2019-06-07T10:53:17.040Z,20.33
2019-06-07T10:55:42.906Z,20.57
2019-06-07T10:58:09.152Z,20.46
2019-06-07T11:00:35.129Z,20.42
2019-06-07T11:03:01.184Z,20.59
2019-06-07T11:05:27.147Z,20.46
2019-06-07T11:07:53.008Z,20.44
2019-06-07T11:10:20.269Z,20.19
2019-06-07T11:12:46.502Z,20.62
2019-06-07T11:15:12.971Z,20.65
2019-06-07T11:17:39.008Z,20.57
2019-06-07T11:20:06.084Z,20.44
2019-06-07T11:22:32.209Z,20.51
2019-06-07T11:24:58.117Z,20.36
2019-06-07T11:27:23.993Z,20.67
2019-06-07T11:29:49.971Z,20.87
2019-06-07T11:32:15.816Z,20.99
2019-06-07T11:34:41.749Z,21.07
2019-06-07T11:37:09.323Z,21.36
2019-06-07T11:39:35.443Z,21.19
2019-06-07T11:42:01.318Z,21.32
2019-06-07T11:44:27.297Z,21.47
2019-06-07T11:46:53.243Z,21.46
2019-06-07T11:49:21.733Z,21.32
2019-06-07T11:51:47.095Z,21.25
2019-06-07T11:54:13.977Z,21.47
2019-06-07T11:56:40.073Z,21.39
2019-06-07T11:59:07.005Z,21.39
2019-06-07T12:01:33.019Z,21.61
2019-06-07T12:03:59.024Z,21.44
2019-06-07T12:06:24.939Z,21.51
2019-06-07T12:08:50.840Z,21.51
2019-06-07T12:11:16.711Z,21.70
2019-06-07T12:13:42.579Z,21.75
2019-06-07T12:16:09.077Z,21.82
2019-06-07T12:18:35.921Z,21.56
2019-06-07T12:21:01.942Z,21.62
2019-06-07T12:23:27.840Z,21.84
2019-06-07T12:25:53.714Z,22.14
2019-06-07T12:28:20.928Z,22.55
2019-06-07T12:30:46.860Z,22.59
2019-06-07T12:33:13.430Z,22.55
2019-06-07T12:35:39.826Z,22.59
2019-06-07T12:38:05.763Z,22.69
2019-06-07T12:40:32.380Z,22.62
2019-06-07T12:42:58.499Z,22.62
2019-06-07T12:45:43.951Z,22.26
2019-06-07T12:47:52.257Z,22.22
2019-06-07T12:50:19.491Z,22.17
2019-06-07T12:52:45.768Z,22.06
2019-06-07T12:55:13.778Z,21.89
2019-06-07T12:57:39.838Z,21.82
2019-06-07T13:00:09.984Z,21.92
2019-06-07T13:02:35.943Z,21.98
2019-06-07T13:05:05.962Z,21.89
2019-06-07T13:07:31.874Z,21.84
2019-06-07T13:09:57.806Z,21.69
2019-06-07T13:12:23.840Z,21.66
2019-06-07T13:14:49.748Z,21.79
2019-06-07T13:17:15.979Z,21.96
2019-06-07T13:19:41.968Z,22.03
2019-06-07T13:22:07.890Z,22.06
2019-06-07T13:24:33.773Z,21.97
2019-06-07T13:26:59.791Z,21.84
2019-06-07T13:29:29.461Z,21.72
2019-06-07T13:31:53.565Z,21.68
2019-06-07T13:34:20.554Z,21.61
2019-06-07T13:36:46.486Z,21.52
2019-06-07T13:39:12.385Z,21.57
2019-06-07T13:41:42.823Z,21.57
2019-06-07T13:44:06.063Z,21.54
2019-06-07T13:46:31.987Z,21.58
2019-06-07T13:48:57.909Z,21.59
2019-06-07T13:51:25.144Z,21.73
2019-06-07T13:53:51.604Z,21.82
2019-06-07T13:56:17.820Z,21.89
2019-06-07T13:58:43.771Z,21.87
2019-06-07T14:01:09.708Z,21.92
2019-06-07T14:03:35.576Z,21.88
2019-06-07T14:06:02.003Z,21.87
2019-06-07T14:08:30.754Z,21.80
2019-06-07T14:10:56.716Z,21.77
2019-06-07T14:13:23.645Z,21.89
2019-06-07T14:15:49.726Z,22.18
2019-06-07T14:18:15.664Z,22.42
2019-06-07T14:20:44.461Z,22.36
2019-06-07T14:23:13.280Z,22.52
2019-06-07T14:25:40.435Z,22.51
2019-06-07T14:28:11.349Z,22.46
2019-06-07T14:30:34.082Z,22.26
2019-06-07T14:33:00.038Z,22.35
2019-06-07T14:35:28.883Z,22.26
2019-06-07T14:37:54.790Z,22.51
2019-06-07T14:40:20.754Z,22.69
2019-06-07T14:42:48.556Z,22.79
2019-06-07T14:45:14.906Z,22.54
2019-06-07T14:47:40.874Z,22.61
2019-06-07T14:50:09.530Z,22.52
2019-06-07T14:52:35.423Z,22.58
2019-06-07T14:55:01.328Z,21.89
2019-06-07T14:57:27.168Z,21.61
2019-06-07T14:59:53.240Z,21.29
2019-06-07T15:02:19.172Z,20.89
2019-06-07T15:04:45.715Z,20.89
2019-06-07T15:07:14.983Z,20.62
2019-06-07T15:09:41.728Z,20.62
2019-06-07T15:12:07.579Z,20.23
2019-06-07T15:14:33.514Z,20.41
2019-06-07T15:16:59.421Z,20.41
2019-06-07T15:19:26.502Z,20.16
2019-06-07T15:21:52.546Z,20.10
2019-06-07T15:24:18.618Z,19.89
2019-06-07T15:26:44.550Z,19.88
2019-06-07T15:29:10.412Z,19.98
2019-06-07T15:31:38.466Z,19.49
2019-06-07T15:34:04.446Z,19.69
2019-06-07T15:36:30.296Z,19.79
2019-06-07T15:38:56.155Z,19.92
2019-06-07T15:41:22.040Z,19.70
2019-06-07T15:43:47.987Z,19.78
2019-06-07T15:46:13.806Z,19.64
2019-06-07T15:48:40.194Z,19.62
2019-06-07T15:51:06.177Z,19.78
2019-06-07T15:53:36.249Z,19.55
2019-06-07T15:55:59.897Z,19.17
2019-06-07T15:58:25.779Z,19.23
2019-06-07T16:00:51.680Z,19.06
2019-06-07T16:03:17.579Z,19.11
2019-06-07T16:05:43.547Z,18.77
2019-06-07T16:08:09.486Z,18.97
2019-06-07T16:10:36.822Z,18.89
2019-06-07T16:13:03.011Z,18.57
2019-06-07T16:15:29.946Z,18.84
2019-06-07T16:17:55.807Z,18.50
2019-06-07T16:20:21.685Z,18.38
2019-06-07T16:22:47.563Z,18.75
2019-06-07T16:25:14.081Z,18.68
2019-06-07T16:27:40.599Z,18.19
2019-06-07T16:30:09.669Z,18.34
2019-06-07T16:32:37.151Z,18.34
2019-06-07T16:35:06.080Z,18.35
2019-06-07T16:37:31.982Z,18.12
2019-06-07T16:39:57.986Z,17.85
2019-06-07T16:42:23.798Z,18.19
2019-06-07T16:44:49.681Z,18.00
2019-06-07T16:47:15.569Z,17.86
2019-06-07T16:49:42.862Z,17.56
2019-06-07T16:52:09.011Z,17.38
2019-06-07T16:54:35.660Z,16.97
2019-06-07T16:57:01.829Z,16.79
2019-06-07T16:59:27.724Z,16.64
2019-06-07T17:01:53.579Z,16.77
2019-06-07T17:04:19.444Z,17.15
2019-06-07T17:06:46.454Z,16.96
2019-06-07T17:09:12.381Z,16.51
2019-06-07T17:11:38.283Z,16.53
2019-06-07T17:14:04.147Z,16.33
2019-06-07T17:16:30.038Z,16.54
2019-06-07T17:18:55.910Z,16.92
2019-06-07T17:21:22.588Z,16.79
2019-06-07T17:23:49.443Z,16.55
2019-06-07T17:26:15.401Z,16.47
2019-06-07T17:28:41.797Z,16.64
2019-06-07T17:31:07.747Z,16.56
2019-06-07T17:33:33.714Z,16.32
2019-06-07T17:35:59.574Z,16.15
2019-06-07T17:38:27.330Z,16.21
2019-06-07T17:40:53.186Z,16.49
2019-06-07T17:43:19.071Z,16.68
2019-06-07T17:45:45.444Z,16.37
2019-06-07T17:48:11.429Z,16.49
2019-06-07T17:50:37.302Z,16.31
2019-06-07T17:53:03.401Z,16.19
2019-06-07T17:55:29.282Z,16.10
2019-06-07T17:57:55.132Z,15.92
2019-06-07T18:00:29.429Z,15.98
2019-06-07T18:02:50.914Z,16.03
2019-06-07T18:05:17.472Z,15.83
2019-06-07T18:07:47.611Z,16.18
2019-06-07T18:10:17.427Z,16.08
2019-06-07T18:12:43.976Z,16.18
2019-06-07T18:15:10.631Z,16.30
2019-06-07T18:17:36.632Z,16.19
2019-06-07T18:20:06.864Z,16.03
2019-06-07T18:22:33.551Z,15.95
2019-06-07T18:24:59.411Z,16.12
2019-06-07T18:27:25.252Z,16.22
2019-06-07T18:29:51.108Z,16.04
2019-06-07T18:32:16.976Z,16.12
2019-06-07T18:34:43.253Z,16.34
2019-06-07T18:37:09.123Z,16.36
2019-06-07T18:39:34.997Z,16.36
2019-06-07T18:42:00.877Z,16.15
2019-06-07T18:44:26.743Z,16.15
2019-06-07T18:46:52.627Z,16.30
2019-06-07T18:49:18.738Z,16.08
2019-06-07T18:51:47.419Z,16.21
2019-06-07T18:54:13.351Z,16.23
2019-06-07T18:56:39.319Z,16.16
2019-06-07T18:59:05.179Z,16.17
2019-06-07T19:01:31.076Z,16.03
2019-06-07T19:03:58.186Z,16.26
2019-06-07T19:06:24.087Z,15.99
2019-06-07T19:08:52.267Z,16.19
2019-06-07T19:11:17.698Z,16.02
2019-06-07T19:13:43.550Z,16.21
2019-06-07T19:16:09.416Z,15.85
2019-06-07T19:18:35.293Z,15.96
2019-06-07T19:21:01.140Z,16.09
2019-06-07T19:23:27.018Z,15.92
2019-06-07T19:25:54.204Z,15.73
2019-06-07T19:28:20.249Z,15.96
2019-06-07T19:30:46.139Z,15.95
2019-06-07T19:33:12.011Z,15.76
2019-06-07T19:35:38.139Z,15.84
2019-06-07T19:38:04.178Z,15.59
2019-06-07T19:40:30.036Z,15.78
2019-06-07T19:42:56.431Z,15.78
2019-06-07T19:45:31.466Z,15.48
2019-06-07T19:47:50.536Z,15.34
2019-06-07T19:50:16.998Z,15.59
2019-06-07T19:52:42.850Z,15.65
2019-06-07T19:55:10.283Z,15.77
2019-06-07T19:57:36.701Z,15.68
2019-06-07T20:00:13.573Z,15.65
2019-06-07T20:02:34.591Z,15.64
2019-06-07T20:05:04.589Z,15.62
2019-06-07T20:07:28.298Z,15.64
2019-06-07T20:09:54.500Z,15.72
2019-06-07T20:12:20.456Z,15.53
2019-06-07T20:14:46.356Z,15.52
2019-06-07T20:17:12.226Z,15.49
2019-06-07T20:19:38.085Z,15.64
2019-06-07T20:22:05.397Z,15.56
2019-06-07T20:24:31.690Z,15.28
2019-06-07T20:26:58.249Z,15.25
2019-06-07T20:29:26.317Z,15.32
2019-06-07T20:31:51.938Z,15.34
2019-06-07T20:34:18.003Z,15.28
2019-06-07T20:36:45.921Z,15.28
2019-06-07T20:39:11.632Z,15.28
2019-06-07T20:41:37.701Z,15.19
2019-06-07T20:44:03.816Z,15.32
2019-06-07T20:46:29.625Z,15.34
2019-06-07T20:48:55.517Z,15.47
2019-06-07T20:51:21.376Z,15.47
2019-06-07T20:53:47.243Z,15.45
2019-06-07T20:56:13.114Z,15.19
2019-06-07T20:58:38.961Z,15.35
2019-06-07T21:01:04.888Z,15.18
2019-06-07T21:03:30.760Z,15.21
2019-06-07T21:05:56.583Z,15.30
2019-06-07T21:08:22.693Z,15.28
2019-06-07T21:10:48.534Z,15.19
2019-06-07T21:13:14.390Z,15.12
2019-06-07T21:15:48.695Z,15.11
2019-06-07T21:18:16.174Z,15.30
2019-06-07T21:20:35.808Z,15.43
2019-06-07T21:23:02.790Z,15.40
2019-06-07T21:25:28.813Z,15.45
2019-06-07T21:27:54.674Z,15.15
2019-06-07T21:30:20.526Z,15.22
2019-06-07T21:32:46.397Z,15.11
2019-06-07T21:35:12.755Z,15.31
2019-06-07T21:37:38.623Z,15.32
2019-06-07T21:40:06.021Z,15.38
2019-06-07T21:42:32.027Z,15.39
2019-06-07T21:44:57.869Z,15.29
2019-06-07T21:47:23.743Z,15.31
2019-06-07T21:49:49.615Z,15.31
2019-06-07T21:52:15.475Z,15.37
2019-06-07T21:54:41.486Z,15.40
2019-06-07T21:57:07.363Z,15.37
2019-06-07T21:59:33.213Z,15.50
2019-06-07T22:01:59.119Z,15.56
2019-06-07T22:04:25.009Z,15.50
2019-06-07T22:06:50.867Z,15.59
2019-06-07T22:09:16.740Z,15.48
2019-06-07T22:11:42.591Z,15.43
2019-06-07T22:14:08.541Z,15.49
2019-06-07T22:16:34.405Z,15.59
2019-06-07T22:19:00.268Z,15.51
2019-06-07T22:21:26.133Z,15.51
2019-06-07T22:23:52.003Z,15.63
2019-06-07T22:26:17.970Z,15.55
2019-06-07T22:28:43.820Z,15.58
2019-06-07T22:31:10.727Z,15.63
2019-06-07T22:33:36.785Z,15.58
2019-06-07T22:36:02.846Z,15.50
2019-06-07T22:38:28.711Z,15.66
2019-06-07T22:40:54.576Z,15.62
2019-06-07T22:43:21.118Z,15.49
2019-06-07T22:45:46.914Z,15.53
2019-06-07T22:48:13.427Z,15.60
2019-06-07T22:50:39.337Z,15.54
2019-06-07T22:53:05.204Z,15.49
2019-06-07T22:55:31.083Z,15.42
2019-06-07T22:57:59.863Z,15.54
2019-06-07T23:00:27.918Z,15.40
2019-06-07T23:02:54.082Z,15.52
2019-06-07T23:05:19.947Z,15.54
2019-06-07T23:07:45.812Z,15.41
2019-06-07T23:10:13.309Z,15.38
2019-06-07T23:12:39.258Z,15.29
2019-06-07T23:15:06.117Z,15.38
2019-06-07T23:17:31.996Z,15.37
2019-06-07T23:19:57.864Z,15.40
2019-06-07T23:22:23.717Z,15.42
2019-06-07T23:24:49.583Z,15.32
2019-06-07T23:27:16.437Z,15.44
2019-06-07T23:29:42.484Z,15.40
2019-06-07T23:32:08.349Z,15.40
2019-06-07T23:34:34.206Z,15.31
2019-06-07T23:37:00.971Z,15.40
2019-06-07T23:39:26.822Z,15.36
2019-06-07T23:41:52.680Z,15.33
2019-06-07T23:44:19.336Z,15.36
2019-06-07T23:46:45.209Z,15.39
2019-06-07T23:49:11.908Z,15.23
2019-06-07T23:51:37.863Z,15.36
2019-06-07T23:54:03.913Z,15.32
2019-06-07T23:56:29.796Z,15.29
2019-06-07T23:58:56.667Z,15.35
